Погода Мильва-Березинана 2 недели

Гродненская область, Белоруссия

18 - 31 июля
  • 18июля
    Сегодня
    +14°
    +26°
    Ясно и безоблачно
    ВремяПогодаТемператураВлажностьДавлениеВетер, м/сВероятность осадков
    00:00Облачно с прояснениями+22°C81 %750 мм1.4 м/с2 %
    03:00Практически безоблачно+20°C86 %750 мм1.6 м/с3 %
    06:00Пасмурно, сплошная облачность+19°C88 %750 мм1.0 м/с29 %
    09:00Облачно с прояснениями+22°C84 %750 мм2.2 м/с42 %
    12:00Облачно с прояснениями+23°C68 %750 мм3.6 м/с19 %
    15:00Ясно и безоблачно+26°C55 %750 мм4.4 м/с14 %
    18:00Практически безоблачно+25°C54 %750 мм5.0 м/с14 %
    21:00Ясно и безоблачно+22°C68 %750 мм2.0 м/с2 %
  • 19июля
    Пятница
    +13°
    +24°
    Ясно и безоблачно
    ВремяПогодаТемператураВлажностьДавлениеВетер, м/сВероятность осадков
    00:00Ясно и безоблачно+19°C69 %751 мм3.6 м/с2 %
    03:00Ясно и безоблачно+17°C75 %751 мм3.5 м/с2 %
    06:00Практически безоблачно+15°C86 %751 мм4.1 м/с2 %
    09:00Небольшая облачность+18°C73 %751 мм4.2 м/с2 %
    12:00Ясно и безоблачно+21°C62 %751 мм3.5 м/с2 %
    15:00Ясно и безоблачно+23°C54 %750 мм3.9 м/с2 %
    18:00Ясно и безоблачно+24°C50 %749 мм4.2 м/с2 %
    21:00Практически безоблачно+21°C63 %748 мм2.7 м/с2 %
  • 20июля
    Суббота
    +14°
    +24°
    Ясно и безоблачно
    ВремяПогодаТемператураВлажностьДавлениеВетер, м/сВероятность осадков
    00:00Ясно и безоблачно+17°C64 %748 мм3.5 м/с2 %
    03:00Ясно и безоблачно+14°C73 %748 мм2.9 м/с2 %
    06:00Ясно и безоблачно+13°C82 %748 мм2.8 м/с2 %
    09:00Ясно и безоблачно+18°C77 %747 мм2.8 м/с2 %
    12:00Ясно и безоблачно+21°C63 %747 мм2.8 м/с5 %
    15:00Ясно и безоблачно+23°C55 %746 мм2.6 м/с8 %
    18:00Практически безоблачно+24°C47 %745 мм3.4 м/с4 %
    21:00Ясно и безоблачно+21°C72 %745 мм2.0 м/с3 %
  • 21июля
    Воскресенье
    +15°
    +25°
    Практически безоблачно
    ВремяПогодаТемператураВлажностьДавлениеВетер, м/сВероятность осадков
    00:00Ясно и безоблачно+17°C78 %745 мм1.5 м/с2 %
    03:00Практически безоблачно+15°C85 %745 мм1.2 м/с2 %
    06:00Ясно и безоблачно+15°C84 %745 мм1.3 м/с2 %
    09:00Ясно и безоблачно+20°C70 %745 мм0.7 м/с2 %
    12:00Практически безоблачно+23°C56 %745 мм1.4 м/с31 %
    15:00Практически безоблачно+25°C52 %744 мм1.7 м/с43 %
    18:00Небольшая облачность+25°C53 %743 мм2.1 м/с30 %
    21:00Практически безоблачно+22°C74 %744 мм1.7 м/с12 %
  • 22июля
    Понедельник
    +16°
    +27°
    Ясно и безоблачно
    ВремяПогодаТемператураВлажностьДавлениеВетер, м/сВероятность осадков
    00:00Ясно и безоблачно+19°C79 %744 мм1.3 м/с2 %
    03:00Ясно и безоблачно+16°C86 %744 мм1.3 м/с2 %
    06:00Ясно и безоблачно+16°C84 %744 мм0.5 м/с2 %
    09:00Ясно и безоблачно+21°C72 %744 мм0.8 м/с2 %
    12:00Практически безоблачно+25°C51 %744 мм1.1 м/с8 %
    15:00Ясно и безоблачно+26°C48 %744 мм1.4 м/с24 %
    18:00Ясно и безоблачно+26°C47 %744 мм1.8 м/с17 %
    21:00Практически безоблачно+23°C70 %744 мм1.9 м/с10 %
Мы используем cookies
Соглашаюсь